Time;durP1;ratioP1;P1;durP2;ratioP2;P2;SDS_P1;SDS_P2;PMS_P1;PMS_P2;Temp;Humidity;BMP_temperature;BMP_pressure;BME280_temperature;BME280_humidity;BME280_pressure;Samples;Min_cycle;Max_cycle;Signal;HPM_P1;HPM_P2
2021/06/23 17:46:15;;;;;;;;;;;;;;;;;;5080484;27;19920;-64
2021/06/23 17:48:42;;;;;;;;;;;;;;;;;;5090162;28;19942;-65
2021/06/23 17:51:08;;;;;;;;;;;;;;;;;;5089634;28;19916;-62
2021/06/23 17:53:34;;;;;;;;;;;;;;;;;;5089580;28;19939;-62
2021/06/23 17:56:00;;;;;;;;;;;;;;;;;;5085975;28;19995;-62
2021/06/23 17:58:26;;;;;;;;;;;;;;;;;;5089996;28;19937;-64
2021/06/23 18:07:02;;;;;;;;;;;;;;;-145.85;34.77;83489.06;2064019;27;10673;-62
2021/06/23 18:08:02;;;;;;;;;;;;;;;-145.85;35.14;83461.03;2098595;28;57933;-65
2021/06/23 18:09:18;;;;;;;;;;;;;;;;;;2076607;27;9340;-68
2021/06/23 18:11:39;;;;;;;;;;;;;;;-145.85;34.61;83417.03;2069579;27;10707;-67
2021/06/23 18:12:40;;;;;;;;;;;;;;;-145.85;34.86;83433.03;2093696;28;11181;-64
2021/06/23 18:13:40;;;;;;;;;;;;;;;-145.85;34.70;83461.03;2101871;28;8922;-67
2021/06/23 18:14:40;;;;;;;;;;;;;;;-145.85;34.72;83449.03;2093576;28;164947;-65
2021/06/23 18:15:40;;;;;;;;;;;;;;;-145.85;34.76;83441.03;2067850;28;179451;-64
2021/06/23 18:17:02;;;;;;;;;;;;;;;;;;2067701;28;9432;-65
2021/06/23 18:18:02;;;;;;;;;;;;;;;;;;2092759;28;10346;-68
2021/06/23 18:19:48;;;;;;;;;;;;;;;;;;2045717;27;9401;-65
2021/06/23 18:21:38;;;;;;;;;;;;;;;-145.85;34.32;83435.03;2073098;27;9449;-73
2021/06/23 18:22:38;;;;;;;;;;;;;;;-145.85;34.47;83495.06;2101394;28;9694;-67
2021/06/23 18:23:38;;;;;;;;;;;;;;;-145.85;34.40;83453.03;2110676;28;875;-67
2021/06/23 18:24:39;;;;;;;;;;;;;;;-145.85;34.37;83457.03;2111418;28;1388;-65
2021/06/23 18:25:39;;;;;;;;;;;;;;;-145.85;34.42;83467.03;2100822;28;846;-65
2021/06/23 18:26:39;;;;;;;;;;;;;;;-145.85;34.28;83499.06;2085788;28;936;-66
2021/06/23 18:27:39;;;;;;;;;;;;;;;-145.85;34.16;83479.03;2085697;28;955;-64
2021/06/23 18:28:39;;;;;;;;;;;;;;;-145.85;34.28;83459.03;2102377;28;820;-65
2021/06/23 18:29:40;;;;;;;;;;;;;;;-145.85;34.41;83475.03;2103377;28;756;-64
2021/06/23 18:30:40;;;;;;;;;;;;;;;-145.85;34.33;83461.03;2101915;28;9709;-65
2021/06/23 18:31:40;;;;;;;;;;;;;;;-145.85;34.46;83461.03;2102845;28;1829;-67
2021/06/23 18:32:40;;;;;;;;;;;;;;;-145.85;34.39;83473.03;2102297;28;1811;-66
2021/06/23 18:33:40;;;;;;;;;;;;;;;-145.85;34.44;83461.03;2101960;28;9992;-65
2021/06/23 18:34:41;;;;;;;;;;;;;;;-145.85;34.45;83449.03;2085130;28;1268;-64
2021/06/23 18:35:41;;;;;;;;;;;;;;;-145.85;34.03;83453.03;2093746;28;904;-67
2021/06/23 18:36:41;;;;;;;;;;;;;;;-145.85;34.25;83449.03;2093997;28;1223;-65
2021/06/23 18:37:41;;;;;;;;;;;;;;;-145.85;34.05;83473.03;2086129;28;927;-68
2021/06/23 18:38:42;;;;;;;;;;;;;;;-145.85;34.09;83459.03;2085612;28;1012;-65
2021/06/23 18:39:42;;;;;;;;;;;;;;;-145.85;34.30;83453.03;2091320;28;1625;-69
2021/06/23 18:40:42;;;;;;;;;;;;;;;-145.85;34.28;83487.06;2102235;28;1975;-69
2021/06/23 18:54:35;;;;;;;;;;;;;;;-145.85;33.70;83333.00;2103220;27;1205;-66
2021/06/23 18:56:45;;;;;;;;;;;;;;;-145.85;35.04;83685.13;2102916;27;1212;-72
2021/06/23 18:57:45;;;;;;;;;;;;;;;-145.85;34.76;83657.13;2100059;27;61686;-63
2021/06/23 18:59:16;;;;;;;;;;;;;;;17.15;34.72;83635.09;2075969;27;9284;-67
2021/06/23 19:00:16;;;;;;;;;;;;;;;17.15;34.91;83663.13;2093792;28;9890;-64
2021/06/23 19:01:16;;;;;;;;;;;;;;;17.15;35.21;83725.16;2086396;28;805;-61
2021/06/23 19:02:17;;;;;;;;;;;;;;;17.15;35.36;83883.22;2086064;28;889;-61
2021/06/23 19:03:17;;;;;;;;;;;;;;;17.15;35.72;83961.25;2077416;28;935;-61
2021/06/23 19:04:17;;;;;;;;;;;;;;;17.15;35.95;83997.25;2086144;28;869;-61
2021/06/23 19:05:20;;;;;;;;;;;;;;;17.15;36.00;84007.28;2077371;28;1331;-60
2021/06/23 19:06:20;;;;;;;;;;;;;;;17.15;36.13;84053.28;2069735;28;1234;-61
2021/06/23 19:07:20;;;;;;;;;;;;;;;17.15;36.33;84075.31;2086179;28;817;-61
2021/06/23 19:08:20;;;;;;;;;;;;;;;17.15;36.08;84061.28;2086396;28;996;-61
2021/06/23 19:09:21;;;;;;;;;;;;;;;17.15;36.01;84049.28;2086700;28;955;-61
2021/06/23 19:10:21;;;;;;;;;;;;;;;17.15;36.06;84053.28;2084797;28;1606;-62
2021/06/23 19:11:21;;;;;;;;;;;;;;;17.15;36.04;83967.25;2077794;28;2142;-61
2021/06/23 19:12:21;;;;;;;;;;;;;;;17.15;35.96;84013.28;2069677;28;1166;-60
2021/06/23 19:13:21;;;;;;;;;;;;;;;17.15;36.43;83985.25;2077305;28;8959;-66
2021/06/23 19:14:48;;;;;;;;;;;;;;;24.15;35.53;83925.22;2075408;27;9294;-66
2021/06/23 19:15:48;;;;;;;;;;;;;;;24.15;35.22;83915.22;2080261;28;10177;-65
2021/06/23 19:16:48;;;;;;;;;;;;;;;24.15;35.01;83871.22;2076831;28;3011;-67
2021/06/23 19:17:48;;;;;;;;;;;;;;;24.15;35.02;83823.19;2069263;28;2692;-69
2021/06/23 19:18:48;;;;;;;;;;;;;;;24.15;34.87;83785.16;2074528;28;1035;-70
2021/06/23 19:19:49;;;;;;;;;;;;;;;24.15;34.94;83791.16;2077607;28;1359;-68
2021/06/23 19:20:49;;;;;;;;;;;;;;;24.15;34.46;83779.16;2077565;28;1486;-69
2021/06/23 19:21:49;;;;;;;;;;;;;;;24.15;34.74;83787.16;2078438;28;2723;-65
2021/06/23 19:22:49;;;;;;;;;;;;;;;24.15;34.38;83789.16;2078330;28;1942;-64
2021/06/23 19:23:49;;;;;;;;;;;;;;;24.15;34.41;83759.16;2078439;28;1427;-64
2021/06/23 19:24:50;;;;;;;;;;;;;;;24.15;34.51;83805.19;2081309;28;1797;-66
2021/06/23 19:25:50;;;;;;;;;;;;;;;24.15;34.46;83793.16;2068952;28;1728;-68
2021/06/23 19:26:50;;;;;;;;;;;;;;;24.15;34.63;83819.19;2077298;28;895;-67
2021/06/23 19:27:51;;;;;;;;;;;;;;;24.15;34.67;83821.19;2077933;28;872;-66
2021/06/23 19:28:52;;;;;;;;;;;;;;;24.15;34.49;83817.19;2069692;28;797;-67
2021/06/23 19:29:52;;;;;;;;;;;;;;;24.15;34.50;83777.16;2069894;28;880;-65
2021/06/23 19:30:52;;;;;;;;;;;;;;;24.15;34.46;83789.16;2069562;28;948;-67
2021/06/23 19:31:52;;;;;;;;;;;;;;;24.15;34.42;83811.19;2086103;28;943;-66
2021/06/23 19:32:52;;;;;;;;;;;;;;;24.15;34.33;83813.19;2069237;28;748;-67
2021/06/23 19:33:53;;;;;;;;;;;;;;;24.15;34.53;83833.19;2061636;28;1928;-68
2021/06/23 19:34:54;;;;;;;;;;;;;;;24.15;34.35;83873.22;2075903;28;3709;-66
2021/06/23 19:35:55;;;;;;;;;;;;;;;24.15;34.22;83769.16;2068561;28;1833;-66
2021/06/23 19:36:55;;;;;;;;;;;;;;;24.15;34.42;83817.19;2070492;28;1596;-67
2021/06/23 19:37:55;;;;;;;;;;;;;;;24.15;34.30;83803.19;2087019;28;1171;-66
2021/06/23 19:38:55;;;;;;;;;;;;;;;24.15;34.10;83791.16;2068191;28;1327;-67
2021/06/23 19:39:57;;;;;;;;;;;;;;;24.15;34.07;83761.16;2069617;28;968;-65
2021/06/23 19:40:58;;;;;;;;;;;;;;;24.15;34.31;83833.19;2078429;28;876;-67
2021/06/23 19:41:58;;;;;;;;;;;;;;;24.15;34.10;83853.19;2078645;28;721;-66
2021/06/23 19:43:00;;;;;;;;;;;;;;;24.15;34.12;83837.19;2077591;28;912;-65
2021/06/23 19:44:00;;;;;;;;;;;;;;;24.15;34.29;83841.19;2078131;28;1058;-65
2021/06/23 19:45:00;;;;;;;;;;;;;;;24.15;34.25;83813.19;2079115;28;1224;-65
2021/06/23 19:46:01;;;;;;;;;;;;;;;24.15;34.33;83803.19;2077058;28;929;-65
2021/06/23 19:47:01;;;;;;;;;;;;;;;24.15;34.01;83809.19;2077634;28;1311;-65
2021/06/23 19:48:01;;;;;;;;;;;;;;;24.15;33.91;83789.16;2077943;28;790;-66
2021/06/23 19:49:01;;;;;;;;;;;;;;;24.15;34.09;83745.16;2077682;28;933;-66
2021/06/23 19:50:02;;;;;;;;;;;;;;;24.15;34.15;83799.16;2069277;28;893;-66
2021/06/23 19:51:03;;;;;;;;;;;;;;;24.15;34.22;83817.19;2061591;28;881;-62
2021/06/23 19:52:03;;;;;;;;;;;;;;;24.15;34.12;83783.16;2069501;28;812;-64
2021/06/23 19:53:03;;;;;;;;;;;;;;;24.15;34.45;83797.16;2077302;28;957;-66
2021/06/23 19:54:03;;;;;;;;;;;;;;;24.15;34.06;83769.16;2061123;28;1902;-66
2021/06/23 19:55:04;;;;;;;;;;;;;;;24.15;34.05;83803.19;2069531;28;1225;-65
2021/06/23 19:56:04;;;;;;;;;;;;;;;24.15;33.84;83779.16;2076693;28;793;-66
2021/06/23 19:57:05;;;;;;;;;;;;;;;24.15;34.01;83831.19;2077857;28;1402;-67
2021/06/23 19:58:05;;;;;;;;;;;;;;;24.15;33.72;83771.16;2077646;28;1067;-65
2021/06/23 19:59:05;;;;;;;;;;;;;;;24.15;33.79;83825.19;2077786;28;751;-67
2021/06/23 20:00:06;;;;;;;;;;;;;;;24.15;33.82;83805.19;2077629;28;876;-67
2021/06/23 20:01:06;;;;;;;;;;;;;;;24.15;34.08;83805.19;2078374;28;1053;-67
2021/06/23 20:02:06;;;;;;;;;;;;;;;24.15;33.81;83777.16;2078086;28;718;-67
2021/06/23 20:03:07;;;;;;;;;;;;;;;24.15;33.81;83833.19;2077734;28;1062;-66
2021/06/23 20:04:07;;;;;;;;;;;;;;;24.15;33.84;83809.19;2061166;28;1694;-66
2021/06/23 20:05:07;;;;;;;;;;;;;;;24.15;33.62;83779.16;2069446;28;1146;-67
2021/06/23 20:06:07;;;;;;;;;;;;;;;24.15;33.86;83839.19;2060795;28;1062;-66
2021/06/23 20:07:08;;;;;;;;;;;;;;;24.15;33.79;83829.19;2061242;28;825;-65
2021/06/23 20:08:08;;;;;;;;;;;;;;;24.15;33.61;83811.19;2077324;28;721;-64
2021/06/23 20:09:08;;;;;;;;;;;;;;;24.15;33.78;83831.19;2077846;28;984;-66
2021/06/23 20:10:08;;;;;;;;;;;;;;;24.15;33.63;83827.19;2069533;28;928;-66
2021/06/23 20:11:11;;;;;;;;;;;;;;;24.15;33.88;83851.19;2069545;28;3342;-67
2021/06/23 20:12:11;;;;;;;;;;;;;;;24.15;33.76;83849.19;2085974;28;1189;-67
2021/06/23 20:13:11;;;;;;;;;;;;;;;24.15;33.81;83817.19;2085600;28;1177;-65
2021/06/23 20:14:12;;;;;;;;;;;;;;;24.15;33.63;83819.19;2068955;28;1906;-66
2021/06/23 20:15:12;;;;;;;;;;;;;;;24.15;33.76;83831.19;2077636;28;1170;-65
2021/06/23 20:16:13;;;;;;;;;;;;;;;24.15;33.86;83863.19;2076954;28;825;-67
2021/06/23 20:17:14;;;;;;;;;;;;;;;24.15;33.61;83863.19;2077742;28;880;-64
2021/06/23 20:18:14;;;;;;;;;;;;;;;24.15;33.59;83825.19;2077527;28;865;-66
2021/06/23 20:19:14;;;;;;;;;;;;;;;24.15;33.65;83839.19;2077327;28;897;-65
2021/06/23 20:20:15;;;;;;;;;;;;;;;24.15;33.61;83799.16;2070795;28;1613;-65
2021/06/23 20:21:15;;;;;;;;;;;;;;;24.15;33.60;83829.19;2061101;28;1255;-64
2021/06/23 20:22:16;;;;;;;;;;;;;;;24.15;33.67;83843.19;2049052;28;1789;-66
2021/06/23 20:23:16;;;;;;;;;;;;;;;24.15;33.79;83853.19;2068067;28;1434;-65
2021/06/23 20:24:16;;;;;;;;;;;;;;;24.15;33.86;83851.19;2061103;28;1492;-66
2021/06/23 20:25:16;;;;;;;;;;;;;;;24.15;33.88;83851.19;2060539;28;1284;-67
2021/06/23 20:26:16;;;;;;;;;;;;;;;24.15;33.77;83859.19;2063648;28;996;-67
2021/06/23 20:27:17;;;;;;;;;;;;;;;24.15;33.69;83851.19;2064582;28;916;-66
2021/06/23 20:28:17;;;;;;;;;;;;;;;24.15;33.84;83809.19;2064876;28;897;-69
2021/06/23 20:29:17;;;;;;;;;;;;;;;24.15;33.44;83801.19;2080414;28;1015;-69
2021/06/23 20:30:18;;;;;;;;;;;;;;;24.15;33.84;83845.19;2080241;28;820;-67
2021/06/23 20:31:18;;;;;;;;;;;;;;;24.15;33.54;83831.19;2064276;28;995;-68
2021/06/23 20:32:18;;;;;;;;;;;;;;;24.15;33.54;83831.19;2077028;28;1730;-67
2021/06/23 20:33:19;;;;;;;;;;;;;;;24.15;33.93;83865.19;2063601;28;1546;-68
2021/06/23 20:34:20;;;;;;;;;;;;;;;24.15;33.53;83789.16;2058249;28;2043;-65
2021/06/23 20:35:20;;;;;;;;;;;;;;;24.15;33.71;83819.19;2071579;28;1610;-66
2021/06/23 20:36:21;;;;;;;;;;;;;;;24.15;33.56;83777.16;2071412;28;936;-68
2021/06/23 20:37:21;;;;;;;;;;;;;;;24.15;33.63;83859.19;2064503;28;762;-66
2021/06/23 20:38:21;;;;;;;;;;;;;;;24.15;33.68;83849.19;2064686;28;898;-66
2021/06/23 20:39:21;;;;;;;;;;;;;;;24.15;33.85;83853.19;2080089;28;873;-68
2021/06/23 20:40:21;;;;;;;;;;;;;;;24.15;33.63;83851.19;2069292;28;1388;-68
2021/06/23 20:41:22;;;;;;;;;;;;;;;24.15;33.70;83863.19;2063558;28;2021;-68
2021/06/23 20:42:25;;;;;;;;;;;;;;;24.15;33.63;83863.19;2078470;28;2297;-66
2021/06/23 20:43:25;;;;;;;;;;;;;;;24.15;33.76;83857.19;2063462;28;825;-68
2021/06/23 20:44:25;;;;;;;;;;;;;;;24.15;33.93;83855.19;2056132;28;818;-67
2021/06/23 20:45:26;;;;;;;;;;;;;;;24.15;34.00;83873.22;2055641;28;1280;-67
2021/06/23 20:46:26;;;;;;;;;;;;;;;24.15;33.95;83859.19;2055400;28;897;-66
2021/06/23 20:47:26;;;;;;;;;;;;;;;24.15;33.97;83829.19;2056350;28;833;-64
2021/06/23 20:48:26;;;;;;;;;;;;;;;24.15;34.04;83885.22;2056309;28;637;-65
2021/06/23 20:49:27;;;;;;;;;;;;;;;24.15;34.06;83899.22;2071735;28;837;-68
2021/06/23 20:50:27;;;;;;;;;;;;;;;24.15;34.16;83889.22;2063975;28;833;-69
2021/06/23 20:51:27;;;;;;;;;;;;;;;24.15;34.16;83889.22;2047766;29;830;-70
2021/06/23 20:52:27;;;;;;;;;;;;;;;24.15;34.14;83837.19;2055693;28;765;-67
2021/06/23 20:53:28;;;;;;;;;;;;;;;24.15;33.95;83843.19;2063801;28;932;-69
2021/06/23 20:54:28;;;;;;;;;;;;;;;24.15;34.00;83875.22;2047140;28;1911;-66
2021/06/23 20:55:29;;;;;;;;;;;;;;;24.15;33.88;83813.19;2055670;28;1284;-66
2021/06/23 20:56:30;;;;;;;;;;;;;;;24.15;33.90;83861.19;2055134;28;1237;-69
2021/06/23 20:57:30;;;;;;;;;;;;;;;24.15;33.98;83849.19;2062523;28;1032;-67
2021/06/23 20:58:31;;;;;;;;;;;;;;;24.15;34.18;83893.22;2063583;28;822;-69
2021/06/23 20:59:31;;;;;;;;;;;;;;;24.15;34.19;83855.19;2047854;29;901;-68
2021/06/23 21:00:33;;;;;;;;;;;;;;;24.15;34.14;83893.22;2055229;28;798;-67
2021/06/23 21:01:33;;;;;;;;;;;;;;;24.15;34.16;83895.22;2055797;28;1204;-68
2021/06/23 21:02:33;;;;;;;;;;;;;;;24.15;34.07;83893.22;2047525;29;1517;-67
2021/06/23 21:03:34;;;;;;;;;;;;;;;24.15;34.12;83897.22;2055570;28;969;-67
2021/06/23 21:04:38;;;;;;;;;;;;;;;24.15;34.20;83953.25;2059444;28;1733;-67
2021/06/23 21:05:38;;;;;;;;;;;;;;;24.15;34.24;83937.22;2062425;28;1922;-66
2021/06/23 21:06:39;;;;;;;;;;;;;;;24.15;34.34;83903.22;2062013;28;1795;-67
2021/06/23 21:07:39;;;;;;;;;;;;;;;24.15;34.13;83901.22;2063547;28;2134;-68
2021/06/23 21:08:44;;;;;;;;;;;;;;;24.15;34.25;83921.22;2055166;28;2045;-67
2021/06/23 21:09:44;;;;;;;;;;;;;;;24.15;34.36;83893.22;2064237;28;1501;-68
2021/06/23 21:10:48;;;;;;;;;;;;;;;24.15;34.05;83925.22;2073170;28;2685;-68
2021/06/23 21:11:48;;;;;;;;;;;;;;;24.15;34.38;83919.22;2064765;28;2121;-67
2021/06/23 21:12:57;;;;;;;;;;;;;;;24.15;34.35;83925.22;2069997;28;1072;-67
2021/06/23 21:13:58;;;;;;;;;;;;;;;24.15;34.24;83925.22;2075283;28;1977;-67
2021/06/23 21:15:05;;;;;;;;;;;;;;;24.15;34.43;83939.25;2079500;28;1169;-67
2021/06/23 21:16:06;;;;;;;;;;;;;;;24.15;34.39;83899.22;2070388;28;1957;-65
2021/06/23 21:17:13;;;;;;;;;;;;;;;24.15;34.35;83973.25;2079525;28;1227;-69
2021/06/23 21:18:20;;;;;;;;;;;;;;;24.15;34.28;83919.22;2071557;28;1417;-66
2021/06/23 21:19:30;;;;;;;;;;;;;;;24.15;34.50;83933.22;2080624;28;873;-66
2021/06/23 21:20:30;;;;;;;;;;;;;;;24.15;34.32;83957.25;2077496;28;1461;-71
2021/06/23 21:21:31;;;;;;;;;;;;;;;24.15;34.35;83969.25;2062308;28;813;-69
2021/06/23 21:22:32;;;;;;;;;;;;;;;24.15;34.19;83937.22;2071434;28;871;-67
2021/06/23 21:23:35;;;;;;;;;;;;;;;24.15;34.32;83919.22;2071181;28;885;-67
2021/06/23 21:24:36;;;;;;;;;;;;;;;24.15;34.02;83929.22;2071472;28;809;-68
2021/06/23 21:25:37;;;;;;;;;;;;;;;24.15;34.27;83893.22;2071213;28;1247;-68
2021/06/23 21:26:37;;;;;;;;;;;;;;;24.15;34.18;83855.19;2070918;28;920;-68
2021/06/23 21:27:37;;;;;;;;;;;;;;;24.15;34.18;84005.28;2071198;28;770;-67
2021/06/23 21:28:40;;;;;;;;;;;;;;;24.15;34.42;83963.25;2071647;28;900;-68
2021/06/23 21:29:41;;;;;;;;;;;;;;;24.15;34.55;83959.25;2071397;28;846;-68
2021/06/23 21:30:45;;;;;;;;;;;;;;;24.15;34.37;83931.22;2071564;28;876;-68
2021/06/23 21:31:45;;;;;;;;;;;;;;;24.15;34.56;83951.25;2071974;28;837;-69
2021/06/23 21:32:50;;;;;;;;;;;;;;;24.15;34.39;83925.22;2080408;28;873;-68
2021/06/23 21:33:53;;;;;;;;;;;;;;;24.15;34.31;83945.25;2071403;28;1188;-69
2021/06/23 21:34:59;;;;;;;;;;;;;;;24.15;34.23;83903.22;2071948;28;1205;-68
2021/06/23 21:36:09;;;;;;;;;;;;;;;24.15;34.32;83925.22;2062167;28;1192;-67
2021/06/23 21:37:23;;;;;;;;;;;;;;;24.15;34.39;83923.22;2065734;28;750;-68
2021/06/23 21:38:23;;;;;;;;;;;;;;;24.15;34.25;83907.22;2080003;28;853;-68
2021/06/23 21:39:23;;;;;;;;;;;;;;;24.15;34.39;83949.25;2080391;28;1011;-67
2021/06/23 21:40:23;;;;;;;;;;;;;;;24.15;34.49;83933.22;2071316;28;1326;-69
2021/06/23 21:41:24;;;;;;;;;;;;;;;24.15;34.32;83933.22;2071256;28;798;-69
2021/06/23 21:42:25;;;;;;;;;;;;;;;24.15;34.51;83969.25;2078621;28;1452;-68
2021/06/23 21:43:25;;;;;;;;;;;;;;;24.15;34.31;83965.25;2079345;28;889;-68
2021/06/23 21:44:26;;;;;;;;;;;;;;;24.15;34.42;83925.22;2071023;28;781;-68
2021/06/23 21:45:26;;;;;;;;;;;;;;;24.15;34.19;83915.22;2070743;28;1286;-68
2021/06/23 21:46:30;;;;;;;;;;;;;;;24.15;34.30;83997.25;2078429;28;1272;-67
2021/06/23 21:47:30;;;;;;;;;;;;;;;24.15;34.42;83955.25;2078804;28;992;-70
2021/06/23 21:48:30;;;;;;;;;;;;;;;24.15;34.44;83973.25;2054525;28;932;-69
2021/06/23 21:49:34;;;;;;;;;;;;;;;24.15;34.48;84001.28;2071229;28;814;-69
2021/06/23 21:50:40;;;;;;;;;;;;;;;24.15;34.76;83949.25;2078683;28;996;-70
2021/06/23 21:51:53;;;;;;;;;;;;;;;24.15;34.48;83917.22;2064181;28;1015;-70
2021/06/23 21:52:53;;;;;;;;;;;;;;;24.15;34.72;84009.28;2072832;28;790;-66
2021/06/23 21:53:53;;;;;;;;;;;;;;;24.15;35.95;84245.41;2070618;28;1910;-66
2021/06/23 21:54:53;;;;;;;;;;;;;;;24.15;35.88;84295.41;2070596;28;1216;-60
2021/06/23 21:56:03;;;;;;;;;;;;;;;24.15;36.24;84305.44;2079287;28;834;-59
2021/06/23 21:57:16;;;;;;;;;;;;;;;24.15;36.20;84235.38;2079708;28;956;-59
2021/06/23 21:58:16;;;;;;;;;;;;;;;24.15;35.81;84221.38;2084841;28;1109;-58
2021/06/23 21:59:25;;;;;;;;;;;;;;;24.15;35.60;84165.34;2046016;28;11016;-59
2021/06/23 22:00:25;;;;;;;;;;;;;;;24.15;34.95;84199.38;2073766;28;1478;-60
2021/06/23 22:01:37;;;;;;;;;;;;;;;24.15;35.06;84165.34;2080858;28;636;-59
2021/06/23 22:02:38;;;;;;;;;;;;;;;24.15;35.00;84145.34;2070719;28;1300;-60
2021/06/23 22:03:38;;;;;;;;;;;;;;;24.15;35.32;84153.34;2061170;28;805;-60
2021/06/23 22:04:39;;;;;;;;;;;;;;;24.15;35.10;84153.34;2077684;28;793;-59
2021/06/23 22:05:39;;;;;;;;;;;;;;;24.15;35.20;84109.31;2079140;28;1228;-60
2021/06/23 22:06:40;;;;;;;;;;;;;;;24.15;35.08;84173.34;2077744;28;893;-59
2021/06/23 22:07:41;;;;;;;;;;;;;;;24.15;35.02;84123.31;2079421;28;861;-59
2021/06/23 22:08:43;;;;;;;;;;;;;;;24.15;35.07;84175.34;2081393;28;1040;-59
2021/06/23 22:09:46;;;;;;;;;;;;;;;24.15;34.84;84117.31;2088280;28;864;-59
2021/06/23 22:10:46;;;;;;;;;;;;;;;24.15;35.11;84115.31;2085008;28;3614;-59
2021/06/23 22:11:50;;;;;;;;;;;;;;;24.15;35.19;84105.31;2087038;28;1188;-59
2021/06/23 22:12:53;;;;;;;;;;;;;;;24.15;34.93;84109.31;2094366;28;1270;-60
2021/06/23 22:13:54;;;;;;;;;;;;;;;24.15;34.86;84115.31;2079416;28;1902;-60
2021/06/23 22:14:55;;;;;;;;;;;;;;;24.15;35.02;84155.34;2095497;28;1362;-59
2021/06/23 22:15:58;;;;;;;;;;;;;;;24.15;34.91;84099.31;2086998;28;801;-60
2021/06/23 22:16:59;;;;;;;;;;;;;;;24.15;34.99;84121.31;2078978;28;995;-60
2021/06/23 22:17:59;;;;;;;;;;;;;;;24.15;35.03;84131.34;2095068;28;952;-60
2021/06/23 22:19:00;;;;;;;;;;;;;;;24.15;35.05;84125.34;2095539;28;871;-60
2021/06/23 22:20:01;;;;;;;;;;;;;;;24.15;34.79;84159.34;2070771;28;1272;-61
2021/06/23 22:21:01;;;;;;;;;;;;;;;24.15;35.05;84143.34;2071125;28;766;-60
2021/06/23 22:22:01;;;;;;;;;;;;;;;24.15;34.88;84123.31;2079532;28;806;-59
2021/06/23 22:23:01;;;;;;;;;;;;;;;24.15;34.95;84097.31;2079821;28;801;-60
2021/06/23 22:24:02;;;;;;;;;;;;;;;24.15;34.76;84165.34;2094904;28;864;-59
2021/06/23 22:25:03;;;;;;;;;;;;;;;24.15;34.89;84141.34;2087119;28;1331;-60
2021/06/23 22:26:04;;;;;;;;;;;;;;;24.15;34.87;84091.31;2078264;28;845;-59
2021/06/23 22:27:05;;;;;;;;;;;;;;;24.15;34.86;84103.31;2095497;28;860;-60
2021/06/23 22:28:05;;;;;;;;;;;;;;;24.15;34.72;84077.31;2095123;28;1002;-60
2021/06/23 22:29:05;;;;;;;;;;;;;;;24.15;34.60;84095.31;2078922;28;1223;-60
2021/06/23 22:30:06;;;;;;;;;;;;;;;24.15;34.77;84129.34;2070264;28;794;-60
2021/06/23 22:31:06;;;;;;;;;;;;;;;24.15;34.72;84097.31;2079135;28;1273;-60
2021/06/23 22:32:06;;;;;;;;;;;;;;;24.15;34.76;84143.34;2086046;28;1331;-59
2021/06/23 22:33:06;;;;;;;;;;;;;;;24.15;34.79;84125.34;2087101;28;1242;-59
2021/06/23 22:34:07;;;;;;;;;;;;;;;24.15;34.88;84107.31;2078798;28;1910;-59
2021/06/23 22:35:07;;;;;;;;;;;;;;;24.15;34.58;84163.34;2079266;28;1290;-59
2021/06/23 22:36:08;;;;;;;;;;;;;;;24.15;34.58;84105.31;2077810;28;1491;-60
2021/06/23 22:37:08;;;;;;;;;;;;;;;24.15;34.64;84061.28;2070771;28;1206;-60
2021/06/23 22:38:09;;;;;;;;;;;;;;;24.15;34.45;84141.34;2070781;28;836;-59
2021/06/23 22:39:09;;;;;;;;;;;;;;;24.15;34.36;84095.31;2079082;28;980;-60
2021/06/23 22:40:12;;;;;;;;;;;;;;;24.15;34.77;84097.31;2078817;28;1396;-59
2021/06/23 22:42:24;;;;;;;;;;;;;;;24.15;34.71;84117.31;2078843;28;848;-60
2021/06/23 22:43:27;;;;;;;;;;;;;;;24.15;34.74;84137.34;2079009;28;887;-60
2021/06/23 22:44:27;;;;;;;;;;;;;;;24.15;34.76;84115.31;2078879;28;769;-60
2021/06/23 22:45:29;;;;;;;;;;;;;;;24.15;34.60;84101.31;2078954;28;1295;-60
2021/06/23 22:47:19;;;;;;;;;;;;;;;24.15;34.61;84121.31;2078088;28;861;-59
2021/06/23 22:47:56;;;;;;;;;;;;;;;24.15;34.57;84111.31;2071375;28;1161;-59
2021/06/23 22:49:02;;;;;;;;;;;;;;;24.15;34.64;84083.31;2078818;28;871;-60
2021/06/23 22:50:12;;;;;;;;;;;;;;;24.15;34.48;84105.31;2079021;28;884;-60
2021/06/23 22:53:15;;;;;;;;;;;;;;;24.15;34.60;84087.31;2078921;28;1286;-60
2021/06/23 22:53:50;;;;;;;;;;;;;;;24.15;34.63;84109.31;2069830;28;1136;-60
2021/06/23 22:55:00;;;;;;;;;;;;;;;24.15;34.42;84103.31;2079146;28;1894;-61
2021/06/23 22:56:04;;;;;;;;;;;;;;;24.15;34.70;84149.34;2078528;28;896;-61
2021/06/23 22:57:10;;;;;;;;;;;;;;;24.15;34.68;84123.31;2078769;28;889;-62
2021/06/23 22:58:11;;;;;;;;;;;;;;;24.15;34.50;84117.31;2079038;28;857;-61
2021/06/23 22:59:11;;;;;;;;;;;;;;;24.15;34.41;84111.31;2078318;28;881;-62
2021/06/23 23:00:11;;;;;;;;;;;;;;;24.15;34.45;84117.31;2079175;28;952;-61
2021/06/23 23:01:11;;;;;;;;;;;;;;;24.15;34.51;84101.31;2078743;28;777;-61
2021/06/23 23:02:12;;;;;;;;;;;;;;;24.15;34.53;84115.31;2078970;28;774;-61
2021/06/23 23:03:12;;;;;;;;;;;;;;;24.15;34.63;84151.34;2078747;28;895;-62
2021/06/23 23:04:13;;;;;;;;;;;;;;;24.15;34.57;84093.31;2078915;28;801;-62
2021/06/23 23:05:13;;;;;;;;;;;;;;;24.15;34.55;84085.31;2078045;28;1203;-61
2021/06/23 23:06:13;;;;;;;;;;;;;;;24.15;34.34;84085.31;2078517;28;968;-61
2021/06/23 23:07:13;;;;;;;;;;;;;;;24.15;34.51;84093.31;2078806;28;968;-61
2021/06/23 23:08:14;;;;;;;;;;;;;;;24.15;34.35;84085.31;2078888;28;1423;-60
2021/06/23 23:09:15;;;;;;;;;;;;;;;24.15;34.63;84109.31;2070686;28;980;-60
2021/06/23 23:10:15;;;;;;;;;;;;;;;24.15;34.41;84083.31;2070775;28;1471;-62
2021/06/23 23:11:16;;;;;;;;;;;;;;;24.15;34.56;84125.34;2077999;28;3551;-61
2021/06/23 23:12:16;;;;;;;;;;;;;;;24.15;34.46;84119.31;2079405;28;1189;-59
2021/06/23 23:13:16;;;;;;;;;;;;;;;24.15;34.39;84077.31;2079246;28;1197;-60
2021/06/23 23:14:17;;;;;;;;;;;;;;;24.15;34.52;84071.31;2095191;28;1910;-60
2021/06/23 23:15:17;;;;;;;;;;;;;;;24.15;34.23;84069.31;2095130;28;1264;-61
2021/06/23 23:16:17;;;;;;;;;;;;;;;24.15;34.09;84053.28;2094725;28;1007;-60
2021/06/23 23:17:17;;;;;;;;;;;;;;;24.15;34.13;84041.28;2086526;28;752;-60
2021/06/23 23:18:17;;;;;;;;;;;;;;;24.15;34.32;84037.28;2062505;28;1177;-60
2021/06/23 23:19:18;;;;;;;;;;;;;;;24.15;34.42;84061.28;2070800;28;984;-60
2021/06/23 23:20:18;;;;;;;;;;;;;;;24.15;34.15;84077.31;2079322;28;892;-60
2021/06/23 23:21:18;;;;;;;;;;;;;;;24.15;33.98;84057.28;2095453;28;896;-60
2021/06/23 23:22:18;;;;;;;;;;;;;;;24.15;34.14;84053.28;2087119;28;804;-60
2021/06/23 23:23:18;;;;;;;;;;;;;;;24.15;34.32;84079.31;2078650;28;709;-61
2021/06/23 23:24:19;;;;;;;;;;;;;;;24.15;34.32;84045.28;2094907;28;1279;-61
2021/06/23 23:25:19;;;;;;;;;;;;;;;24.15;34.28;84059.28;2086645;28;1366;-60
2021/06/23 23:26:19;;;;;;;;;;;;;;;24.15;34.52;84057.28;2078136;28;891;-60
2021/06/23 23:27:19;;;;;;;;;;;;;;;24.15;34.30;84051.28;2079391;28;619;-60
2021/06/23 23:28:19;;;;;;;;;;;;;;;24.15;34.14;84053.28;2079253;28;912;-60
2021/06/23 23:29:20;;;;;;;;;;;;;;;24.15;34.16;84053.28;2079085;28;813;-61
2021/06/23 23:30:20;;;;;;;;;;;;;;;24.15;34.16;84075.31;2081642;28;1443;-60
2021/06/23 23:31:20;;;;;;;;;;;;;;;24.15;34.25;84041.28;2087077;28;797;-60
2021/06/23 23:32:21;;;;;;;;;;;;;;;24.15;34.33;84053.28;2086825;28;884;-61
2021/06/23 23:33:21;;;;;;;;;;;;;;;24.15;34.33;84035.28;2086970;28;769;-59
2021/06/23 23:34:21;;;;;;;;;;;;;;;24.15;34.33;84081.31;2087196;28;1918;-61
2021/06/23 23:35:21;;;;;;;;;;;;;;;24.15;34.22;84041.28;2087119;28;1225;-59
2021/06/23 23:36:22;;;;;;;;;;;;;;;24.15;34.25;84067.31;2086834;28;923;-60
2021/06/23 23:37:22;;;;;;;;;;;;;;;24.15;34.30;84025.28;2087666;28;864;-61
2021/06/23 23:38:22;;;;;;;;;;;;;;;24.15;34.15;84057.28;2087504;28;832;-61
2021/06/23 23:39:22;;;;;;;;;;;;;;;24.15;34.31;84023.28;2087590;28;928;-60
2021/06/23 23:40:22;;;;;;;;;;;;;;;24.15;33.95;84073.31;2087456;28;738;-61
2021/06/23 23:41:22;;;;;;;;;;;;;;;24.15;34.29;84063.28;2087313;28;983;-61
2021/06/23 23:42:23;;;;;;;;;;;;;;;24.15;34.35;84061.28;2087898;28;884;-61
2021/06/23 23:43:23;;;;;;;;;;;;;;;24.15;34.64;84109.31;2087868;28;750;-60
2021/06/23 23:44:23;;;;;;;;;;;;;;;24.15;34.28;84077.31;2087750;28;805;-61
2021/06/23 23:45:23;;;;;;;;;;;;;;;24.15;34.35;84095.31;2087420;28;1171;-61
2021/06/23 23:46:23;;;;;;;;;;;;;;;24.15;34.26;84057.28;2086556;28;928;-61
2021/06/23 23:47:24;;;;;;;;;;;;;;;24.15;34.20;84079.31;2078064;28;924;-60